KTPL/TPL METAR and TAF weather

Enter ICAO airport designator
Station Type Date Time Source
KTPL METAR 2019/06/19 00:51 UTC NOAA

KTPL 190051Z AUTO 14006KT 10SM CLR 29/24 A2984 RMK AO2 SLP107 T02940239


Station Type Date Time Source
KTPL Decoded METAR 2019/06/19 00:51 UTC NOAA

Temple, Draughon-Miller Central Texas Regional Airport, TX, United States (KTPL) 31-09N 097-24W
Jun 18, 2019 - 08:51 PM EDT / 2019.06.19 0051 UTC
Wind: from the SE (140 degrees) at 7 MPH (6 KT):0
Visibility: 10 mile(s):0
Sky conditions: clear
Temperature: 84.9 F (29.4 C)
Dew Point: 75.0 F (23.9 C)
Relative Humidity: 72%
Pressure (altimeter): 29.84 in. Hg (1010 hPa)
ob: KTPL 190051Z AUTO 14006KT 10SM CLR 29/24 A2984 RMK AO2 SLP107 T02940239
cycle: 1

Station Type Date Time Source
KTPL TAF UTC NOAA

Error!

Example: see airport list